Airfield :
LOGIN :

Register | Disclaimer

   EN    FR    IT 

 










Legend :    VFR   Marginal VFR   IFR   Intensive IFR   Very Intensive IFR
Visi :
Ceiling :
>= 8 km
>= 3000ft
5 to 8 km
1000 to 3000 ft
1500m to 5 km
500 to 1000 ft
800 to 1500m
200 to 500 ft
< 800m
< 200 ft
Symbols :   Thunderstorms  Fog  Heavy snow  Heavy precipitations  Wind > 20 kt
SIGMETs :     Misc.  Thunderstorms  Icing  Turbulence  Mountain Waves  Volcanic Ashes






- Airport Elevation : 468 ft
- IATA code : GRO


LEGE - Girona Costa Brava

CURRENT METAR :
  • 182300Z 28003KT 9999 BCFG NSC 02/01 Q1026

EXPIRED METARs :
  • 182230Z 00000KT 9000 BCFG NSC 00/M00 Q1027
  • 182200Z 00000KT 8000 BCFG NSC 02/02 Q1027
  • 182130Z VRB02KT 7000 3000 BCFG NSC 02/02 Q1027
  • 182111Z 00000KT 3000 BCFG NSC 02/02 Q1027
  • 182045Z VRB01KT 4500 0900 BCFG NSC 01/01 Q1027
  • 182030Z 04002KT 9000 0800 BCFG NSC 01/01 Q1027

TAF AMD TAF LEGE
Valid from the 18 at 20:00 until the 19 at 18:00 UTC


182049Z 1820/1918 VRB03KT 9999 FEW010 TX17/1913Z TNM00/1906Z
TEMPO 1820/1909 1500 BCFG BKN004
PROB40
TEMPO 1820/1909 0350 FG VV002



MET'MAP, your aeronautical weather chart ! - Copyright ORBIFLY December 2007 - Disclaimer

ORBIFLY MET'MAP TEAM :

Programming & Development : Alexandra Zaïnal
Concept & original design : Baudouin d'Aumeries
Assistance for programming : Marc-Olivier Méhu
Technical & hardware support : Manuel Goepfert

Contact : metmap@orbifly.com




SOURCES & CREDITS :

   NOAA